sensor_id;sensor_type;location;lat;lon;timestamp;P1;durP1;ratioP1;P2;durP2;ratioP2
82787;SDS011;72529;51.786;4.662;2024-03-06T00:00:58;29.95;;;29.46;;
82787;SDS011;72529;51.786;4.662;2024-03-06T00:03:23;30.95;;;30.20;;
82787;SDS011;72529;51.786;4.662;2024-03-06T00:05:49;32.57;;;31.98;;
82787;SDS011;72529;51.786;4.662;2024-03-06T00:08:14;32.82;;;32.24;;
82787;SDS011;72529;51.786;4.662;2024-03-06T00:10:40;32.67;;;32.46;;
82787;SDS011;72529;51.786;4.662;2024-03-06T00:13:06;34.52;;;34.04;;
82787;SDS011;72529;51.786;4.662;2024-03-06T00:15:32;34.83;;;34.06;;
82787;SDS011;72529;51.786;4.662;2024-03-06T00:17:58;33.58;;;33.37;;
82787;SDS011;72529;51.786;4.662;2024-03-06T00:20:25;33.41;;;32.61;;
82787;SDS011;72529;51.786;4.662;2024-03-06T00:22:50;33.11;;;32.41;;
82787;SDS011;72529;51.786;4.662;2024-03-06T00:25:15;32.51;;;32.05;;
82787;SDS011;72529;51.786;4.662;2024-03-06T00:27:41;31.70;;;31.35;;
82787;SDS011;72529;51.786;4.662;2024-03-06T00:30:06;33.51;;;33.07;;
82787;SDS011;72529;51.786;4.662;2024-03-06T00:32:32;32.48;;;32.12;;
82787;SDS011;72529;51.786;4.662;2024-03-06T00:34:58;33.02;;;32.52;;
82787;SDS011;72529;51.786;4.662;2024-03-06T00:37:23;32.83;;;32.18;;
82787;SDS011;72529;51.786;4.662;2024-03-06T00:39:48;33.99;;;32.99;;
82787;SDS011;72529;51.786;4.662;2024-03-06T00:42:14;32.06;;;31.53;;
82787;SDS011;72529;51.786;4.662;2024-03-06T00:44:39;31.08;;;30.83;;
82787;SDS011;72529;51.786;4.662;2024-03-06T00:47:05;31.56;;;31.18;;
82787;SDS011;72529;51.786;4.662;2024-03-06T00:49:30;32.88;;;32.28;;
82787;SDS011;72529;51.786;4.662;2024-03-06T00:51:56;31.70;;;31.07;;
82787;SDS011;72529;51.786;4.662;2024-03-06T00:54:21;32.55;;;31.98;;
82787;SDS011;72529;51.786;4.662;2024-03-06T00:56:47;33.09;;;32.32;;
82787;SDS011;72529;51.786;4.662;2024-03-06T00:59:12;33.32;;;32.56;;
82787;SDS011;72529;51.786;4.662;2024-03-06T01:01:38;32.58;;;32.47;;
82787;SDS011;72529;51.786;4.662;2024-03-06T01:04:03;32.93;;;32.57;;
82787;SDS011;72529;51.786;4.662;2024-03-06T01:06:29;33.17;;;32.75;;
82787;SDS011;72529;51.786;4.662;2024-03-06T01:08:55;34.45;;;33.97;;
82787;SDS011;72529;51.786;4.662;2024-03-06T01:11:22;33.90;;;33.58;;
82787;SDS011;72529;51.786;4.662;2024-03-06T01:13:47;33.48;;;33.31;;
82787;SDS011;72529;51.786;4.662;2024-03-06T01:16:12;33.66;;;33.30;;
82787;SDS011;72529;51.786;4.662;2024-03-06T01:18:38;34.05;;;33.58;;
82787;SDS011;72529;51.786;4.662;2024-03-06T01:21:03;34.70;;;34.32;;
82787;SDS011;72529;51.786;4.662;2024-03-06T01:23:29;34.38;;;34.08;;
82787;SDS011;72529;51.786;4.662;2024-03-06T01:25:54;32.51;;;32.26;;
82787;SDS011;72529;51.786;4.662;2024-03-06T01:28:20;32.44;;;32.10;;
82787;SDS011;72529;51.786;4.662;2024-03-06T01:30:45;30.96;;;30.17;;
82787;SDS011;72529;51.786;4.662;2024-03-06T01:33:11;30.14;;;29.60;;
82787;SDS011;72529;51.786;4.662;2024-03-06T01:35:36;29.98;;;29.92;;
82787;SDS011;72529;51.786;4.662;2024-03-06T01:38:02;31.34;;;31.08;;
82787;SDS011;72529;51.786;4.662;2024-03-06T01:40:27;33.39;;;32.53;;
82787;SDS011;72529;51.786;4.662;2024-03-06T01:42:54;32.50;;;32.13;;
82787;SDS011;72529;51.786;4.662;2024-03-06T01:45:20;34.01;;;33.54;;
82787;SDS011;72529;51.786;4.662;2024-03-06T01:47:45;34.14;;;33.81;;
82787;SDS011;72529;51.786;4.662;2024-03-06T01:50:11;33.68;;;33.52;;
82787;SDS011;72529;51.786;4.662;2024-03-06T01:52:38;34.16;;;33.97;;
82787;SDS011;72529;51.786;4.662;2024-03-06T01:55:06;33.50;;;33.14;;
82787;SDS011;72529;51.786;4.662;2024-03-06T01:57:33;32.28;;;32.03;;
82787;SDS011;72529;51.786;4.662;2024-03-06T02:00:00;32.80;;;32.32;;
82787;SDS011;72529;51.786;4.662;2024-03-06T02:02:28;33.34;;;32.84;;
82787;SDS011;72529;51.786;4.662;2024-03-06T02:04:54;32.52;;;32.31;;
82787;SDS011;72529;51.786;4.662;2024-03-06T02:07:20;33.49;;;33.44;;
82787;SDS011;72529;51.786;4.662;2024-03-06T02:09:46;34.17;;;33.75;;
82787;SDS011;72529;51.786;4.662;2024-03-06T02:12:11;32.73;;;32.57;;
82787;SDS011;72529;51.786;4.662;2024-03-06T02:14:37;32.46;;;32.14;;
82787;SDS011;72529;51.786;4.662;2024-03-06T02:17:04;29.31;;;29.24;;
82787;SDS011;72529;51.786;4.662;2024-03-06T02:22:08;30.61;;;30.41;;
82787;SDS011;72529;51.786;4.662;2024-03-06T02:24:35;31.03;;;30.85;;
82787;SDS011;72529;51.786;4.662;2024-03-06T02:27:02;32.33;;;31.99;;
82787;SDS011;72529;51.786;4.662;2024-03-06T02:29:28;32.29;;;32.15;;
82787;SDS011;72529;51.786;4.662;2024-03-06T02:31:53;31.80;;;31.43;;
82787;SDS011;72529;51.786;4.662;2024-03-06T02:34:19;31.98;;;31.52;;
82787;SDS011;72529;51.786;4.662;2024-03-06T02:36:44;31.16;;;31.11;;
82787;SDS011;72529;51.786;4.662;2024-03-06T02:39:10;31.97;;;31.63;;
82787;SDS011;72529;51.786;4.662;2024-03-06T02:41:35;32.38;;;31.97;;
82787;SDS011;72529;51.786;4.662;2024-03-06T02:44:01;33.47;;;33.13;;
82787;SDS011;72529;51.786;4.662;2024-03-06T02:46:27;33.75;;;33.07;;
82787;SDS011;72529;51.786;4.662;2024-03-06T02:48:53;32.53;;;32.05;;
82787;SDS011;72529;51.786;4.662;2024-03-06T02:51:20;32.66;;;32.27;;
82787;SDS011;72529;51.786;4.662;2024-03-06T02:53:46;32.22;;;32.15;;
82787;SDS011;72529;51.786;4.662;2024-03-06T02:56:17;31.36;;;31.17;;
82787;SDS011;72529;51.786;4.662;2024-03-06T02:58:45;31.42;;;31.01;;
82787;SDS011;72529;51.786;4.662;2024-03-06T03:01:11;31.12;;;30.45;;
82787;SDS011;72529;51.786;4.662;2024-03-06T03:03:40;30.09;;;29.93;;
82787;SDS011;72529;51.786;4.662;2024-03-06T03:06:06;30.13;;;30.08;;
82787;SDS011;72529;51.786;4.662;2024-03-06T03:08:31;30.70;;;30.32;;
82787;SDS011;72529;51.786;4.662;2024-03-06T03:10:57;30.96;;;30.57;;
82787;SDS011;72529;51.786;4.662;2024-03-06T03:13:22;30.56;;;30.28;;
82787;SDS011;72529;51.786;4.662;2024-03-06T03:15:48;29.93;;;29.71;;
82787;SDS011;72529;51.786;4.662;2024-03-06T03:18:13;30.38;;;30.30;;
82787;SDS011;72529;51.786;4.662;2024-03-06T03:20:39;30.15;;;29.93;;
82787;SDS011;72529;51.786;4.662;2024-03-06T03:23:04;30.14;;;30.04;;
82787;SDS011;72529;51.786;4.662;2024-03-06T03:25:31;30.71;;;30.68;;
82787;SDS011;72529;51.786;4.662;2024-03-06T03:27:57;32.30;;;31.81;;
82787;SDS011;72529;51.786;4.662;2024-03-06T03:30:24;31.08;;;30.91;;
82787;SDS011;72529;51.786;4.662;2024-03-06T03:32:49;31.89;;;31.67;;
82787;SDS011;72529;51.786;4.662;2024-03-06T03:35:14;30.96;;;30.79;;
82787;SDS011;72529;51.786;4.662;2024-03-06T03:37:40;31.41;;;31.02;;
82787;SDS011;72529;51.786;4.662;2024-03-06T03:40:06;30.41;;;30.30;;
82787;SDS011;72529;51.786;4.662;2024-03-06T03:42:32;31.20;;;30.77;;
82787;SDS011;72529;51.786;4.662;2024-03-06T03:44:57;31.78;;;31.42;;
82787;SDS011;72529;51.786;4.662;2024-03-06T03:47:23;29.87;;;29.77;;
82787;SDS011;72529;51.786;4.662;2024-03-06T03:49:48;30.38;;;30.07;;
82787;SDS011;72529;51.786;4.662;2024-03-06T03:52:13;30.70;;;30.47;;
82787;SDS011;72529;51.786;4.662;2024-03-06T03:54:41;31.62;;;31.60;;
82787;SDS011;72529;51.786;4.662;2024-03-06T03:57:06;31.24;;;31.07;;
82787;SDS011;72529;51.786;4.662;2024-03-06T03:59:33;30.50;;;30.37;;
82787;SDS011;72529;51.786;4.662;2024-03-06T04:01:59;31.22;;;30.99;;
82787;SDS011;72529;51.786;4.662;2024-03-06T04:04:24;31.10;;;30.80;;
82787;SDS011;72529;51.786;4.662;2024-03-06T04:06:50;31.42;;;31.26;;
82787;SDS011;72529;51.786;4.662;2024-03-06T04:09:15;31.57;;;31.12;;
82787;SDS011;72529;51.786;4.662;2024-03-06T04:11:40;30.64;;;30.53;;
82787;SDS011;72529;51.786;4.662;2024-03-06T04:14:06;31.48;;;31.36;;
82787;SDS011;72529;51.786;4.662;2024-03-06T04:16:32;31.30;;;31.16;;
82787;SDS011;72529;51.786;4.662;2024-03-06T04:19:01;32.42;;;32.15;;
82787;SDS011;72529;51.786;4.662;2024-03-06T04:21:26;31.50;;;31.41;;
82787;SDS011;72529;51.786;4.662;2024-03-06T04:23:52;31.16;;;31.02;;
82787;SDS011;72529;51.786;4.662;2024-03-06T04:26:18;30.19;;;30.09;;
82787;SDS011;72529;51.786;4.662;2024-03-06T04:28:43;31.85;;;31.65;;
82787;SDS011;72529;51.786;4.662;2024-03-06T04:31:09;33.16;;;33.01;;
82787;SDS011;72529;51.786;4.662;2024-03-06T04:33:35;34.64;;;34.56;;
82787;SDS011;72529;51.786;4.662;2024-03-06T04:36:02;33.56;;;33.48;;
82787;SDS011;72529;51.786;4.662;2024-03-06T04:38:29;31.55;;;31.45;;
82787;SDS011;72529;51.786;4.662;2024-03-06T04:40:54;31.08;;;31.07;;
82787;SDS011;72529;51.786;4.662;2024-03-06T04:43:20;29.98;;;29.84;;
82787;SDS011;72529;51.786;4.662;2024-03-06T04:45:45;29.56;;;29.42;;
82787;SDS011;72529;51.786;4.662;2024-03-06T04:48:10;30.55;;;30.35;;
82787;SDS011;72529;51.786;4.662;2024-03-06T04:50:37;29.23;;;29.17;;
82787;SDS011;72529;51.786;4.662;2024-03-06T04:53:02;29.30;;;29.28;;
82787;SDS011;72529;51.786;4.662;2024-03-06T04:55:28;29.56;;;29.25;;
82787;SDS011;72529;51.786;4.662;2024-03-06T04:57:55;26.62;;;26.37;;
82787;SDS011;72529;51.786;4.662;2024-03-06T05:00:20;23.42;;;23.42;;
82787;SDS011;72529;51.786;4.662;2024-03-06T05:02:46;23.27;;;23.26;;
82787;SDS011;72529;51.786;4.662;2024-03-06T05:05:14;21.96;;;21.96;;
82787;SDS011;72529;51.786;4.662;2024-03-06T05:07:40;22.59;;;22.59;;
82787;SDS011;72529;51.786;4.662;2024-03-06T05:10:05;21.46;;;21.46;;
82787;SDS011;72529;51.786;4.662;2024-03-06T05:12:33;22.09;;;22.06;;
82787;SDS011;72529;51.786;4.662;2024-03-06T05:14:59;22.47;;;22.47;;
82787;SDS011;72529;51.786;4.662;2024-03-06T05:17:25;24.48;;;24.32;;
82787;SDS011;72529;51.786;4.662;2024-03-06T05:19:50;23.92;;;23.92;;
82787;SDS011;72529;51.786;4.662;2024-03-06T05:22:16;23.42;;;23.42;;
82787;SDS011;72529;51.786;4.662;2024-03-06T05:24:42;23.54;;;23.52;;
82787;SDS011;72529;51.786;4.662;2024-03-06T05:27:08;24.63;;;24.59;;
82787;SDS011;72529;51.786;4.662;2024-03-06T05:29:35;25.78;;;25.76;;
82787;SDS011;72529;51.786;4.662;2024-03-06T05:32:02;27.17;;;27.16;;
82787;SDS011;72529;51.786;4.662;2024-03-06T05:34:28;28.10;;;28.02;;
82787;SDS011;72529;51.786;4.662;2024-03-06T05:36:54;28.41;;;28.40;;
82787;SDS011;72529;51.786;4.662;2024-03-06T05:39:20;30.60;;;30.43;;
82787;SDS011;72529;51.786;4.662;2024-03-06T05:41:45;29.58;;;29.56;;
82787;SDS011;72529;51.786;4.662;2024-03-06T05:44:11;29.91;;;29.88;;
82787;SDS011;72529;51.786;4.662;2024-03-06T05:46:37;31.59;;;31.34;;
82787;SDS011;72529;51.786;4.662;2024-03-06T05:49:03;29.93;;;29.72;;
82787;SDS011;72529;51.786;4.662;2024-03-06T05:51:29;30.93;;;30.87;;
82787;SDS011;72529;51.786;4.662;2024-03-06T05:53:55;31.90;;;31.89;;
82787;SDS011;72529;51.786;4.662;2024-03-06T05:56:20;31.49;;;31.21;;
82787;SDS011;72529;51.786;4.662;2024-03-06T05:58:46;32.73;;;32.55;;
82787;SDS011;72529;51.786;4.662;2024-03-06T06:01:15;30.44;;;30.38;;
82787;SDS011;72529;51.786;4.662;2024-03-06T06:03:44;30.15;;;30.13;;
82787;SDS011;72529;51.786;4.662;2024-03-06T06:06:09;29.47;;;29.46;;
82787;SDS011;72529;51.786;4.662;2024-03-06T06:08:34;29.41;;;29.31;;
82787;SDS011;72529;51.786;4.662;2024-03-06T06:11:00;30.66;;;30.57;;
82787;SDS011;72529;51.786;4.662;2024-03-06T06:13:28;31.34;;;31.28;;
82787;SDS011;72529;51.786;4.662;2024-03-06T06:15:53;31.67;;;31.54;;
82787;SDS011;72529;51.786;4.662;2024-03-06T06:18:19;31.36;;;31.18;;
82787;SDS011;72529;51.786;4.662;2024-03-06T06:20:45;33.32;;;33.14;;
82787;SDS011;72529;51.786;4.662;2024-03-06T06:23:11;35.32;;;35.16;;
82787;SDS011;72529;51.786;4.662;2024-03-06T06:25:36;35.59;;;35.56;;
82787;SDS011;72529;51.786;4.662;2024-03-06T06:28:01;33.45;;;33.15;;
82787;SDS011;72529;51.786;4.662;2024-03-06T06:30:27;32.12;;;31.90;;
82787;SDS011;72529;51.786;4.662;2024-03-06T06:32:53;30.14;;;30.00;;
82787;SDS011;72529;51.786;4.662;2024-03-06T06:35:19;32.69;;;32.61;;
82787;SDS011;72529;51.786;4.662;2024-03-06T06:37:44;37.48;;;37.28;;
82787;SDS011;72529;51.786;4.662;2024-03-06T06:40:09;39.06;;;38.83;;
82787;SDS011;72529;51.786;4.662;2024-03-06T06:42:37;35.86;;;35.80;;
82787;SDS011;72529;51.786;4.662;2024-03-06T06:45:03;37.44;;;37.33;;
82787;SDS011;72529;51.786;4.662;2024-03-06T06:47:31;47.09;;;46.53;;
82787;SDS011;72529;51.786;4.662;2024-03-06T06:49:57;56.10;;;55.38;;
82787;SDS011;72529;51.786;4.662;2024-03-06T06:52:22;53.30;;;52.79;;
82787;SDS011;72529;51.786;4.662;2024-03-06T06:54:47;44.88;;;44.68;;
82787;SDS011;72529;51.786;4.662;2024-03-06T06:57:15;38.75;;;38.62;;
82787;SDS011;72529;51.786;4.662;2024-03-06T06:59:40;39.53;;;39.35;;
82787;SDS011;72529;51.786;4.662;2024-03-06T07:02:06;40.94;;;40.75;;
82787;SDS011;72529;51.786;4.662;2024-03-06T07:04:31;43.79;;;43.47;;
82787;SDS011;72529;51.786;4.662;2024-03-06T07:06:57;41.97;;;41.70;;
82787;SDS011;72529;51.786;4.662;2024-03-06T07:09:22;39.81;;;39.77;;
82787;SDS011;72529;51.786;4.662;2024-03-06T07:11:48;37.34;;;37.24;;
82787;SDS011;72529;51.786;4.662;2024-03-06T07:14:14;36.45;;;36.39;;
82787;SDS011;72529;51.786;4.662;2024-03-06T07:16:44;35.18;;;35.11;;
82787;SDS011;72529;51.786;4.662;2024-03-06T07:19:10;31.65;;;31.48;;
82787;SDS011;72529;51.786;4.662;2024-03-06T07:21:36;32.67;;;32.39;;
82787;SDS011;72529;51.786;4.662;2024-03-06T07:24:03;33.57;;;33.56;;
82787;SDS011;72529;51.786;4.662;2024-03-06T07:26:29;33.98;;;33.93;;
82787;SDS011;72529;51.786;4.662;2024-03-06T07:28:57;33.97;;;33.84;;
82787;SDS011;72529;51.786;4.662;2024-03-06T07:31:23;34.35;;;34.26;;
82787;SDS011;72529;51.786;4.662;2024-03-06T07:33:48;34.34;;;34.29;;
82787;SDS011;72529;51.786;4.662;2024-03-06T07:36:14;33.99;;;33.91;;
82787;SDS011;72529;51.786;4.662;2024-03-06T07:38:41;33.33;;;33.21;;
82787;SDS011;72529;51.786;4.662;2024-03-06T07:41:07;33.29;;;33.27;;
82787;SDS011;72529;51.786;4.662;2024-03-06T07:43:32;34.13;;;34.08;;
82787;SDS011;72529;51.786;4.662;2024-03-06T07:45:58;35.83;;;35.80;;
82787;SDS011;72529;51.786;4.662;2024-03-06T07:48:24;35.18;;;35.13;;
82787;SDS011;72529;51.786;4.662;2024-03-06T07:50:49;33.85;;;33.81;;
82787;SDS011;72529;51.786;4.662;2024-03-06T07:53:15;34.74;;;34.60;;
82787;SDS011;72529;51.786;4.662;2024-03-06T07:55:41;34.92;;;34.91;;
82787;SDS011;72529;51.786;4.662;2024-03-06T07:58:07;35.82;;;35.77;;
82787;SDS011;72529;51.786;4.662;2024-03-06T08:00:34;35.45;;;35.42;;
82787;SDS011;72529;51.786;4.662;2024-03-06T08:02:59;36.24;;;36.22;;
82787;SDS011;72529;51.786;4.662;2024-03-06T08:05:26;36.70;;;36.69;;
82787;SDS011;72529;51.786;4.662;2024-03-06T08:07:51;36.72;;;36.56;;
82787;SDS011;72529;51.786;4.662;2024-03-06T08:10:17;36.42;;;36.33;;
82787;SDS011;72529;51.786;4.662;2024-03-06T08:12:44;36.71;;;36.62;;
82787;SDS011;72529;51.786;4.662;2024-03-06T08:15:11;35.36;;;35.36;;
82787;SDS011;72529;51.786;4.662;2024-03-06T08:17:39;35.62;;;35.55;;
82787;SDS011;72529;51.786;4.662;2024-03-06T08:20:07;35.59;;;35.48;;
82787;SDS011;72529;51.786;4.662;2024-03-06T08:22:34;35.99;;;35.98;;
82787;SDS011;72529;51.786;4.662;2024-03-06T08:25:07;36.72;;;36.72;;
82787;SDS011;72529;51.786;4.662;2024-03-06T08:27:39;35.23;;;35.21;;
82787;SDS011;72529;51.786;4.662;2024-03-06T08:30:06;34.37;;;34.35;;
82787;SDS011;72529;51.786;4.662;2024-03-06T08:32:33;33.91;;;33.81;;
82787;SDS011;72529;51.786;4.662;2024-03-06T08:35:08;34.39;;;34.35;;
82787;SDS011;72529;51.786;4.662;2024-03-06T08:37:38;34.35;;;34.31;;
82787;SDS011;72529;51.786;4.662;2024-03-06T08:40:04;34.02;;;34.02;;
82787;SDS011;72529;51.786;4.662;2024-03-06T08:42:30;33.38;;;33.26;;
82787;SDS011;72529;51.786;4.662;2024-03-06T08:44:57;34.48;;;34.20;;
82787;SDS011;72529;51.786;4.662;2024-03-06T08:47:23;33.25;;;33.23;;
82787;SDS011;72529;51.786;4.662;2024-03-06T08:49:48;32.76;;;32.75;;
82787;SDS011;72529;51.786;4.662;2024-03-06T08:52:13;33.63;;;33.50;;
82787;SDS011;72529;51.786;4.662;2024-03-06T08:54:42;32.82;;;32.65;;
82787;SDS011;72529;51.786;4.662;2024-03-06T08:57:08;32.69;;;32.59;;
82787;SDS011;72529;51.786;4.662;2024-03-06T08:59:34;32.54;;;32.52;;
82787;SDS011;72529;51.786;4.662;2024-03-06T09:02:11;32.61;;;32.46;;
82787;SDS011;72529;51.786;4.662;2024-03-06T09:04:44;31.36;;;31.34;;
82787;SDS011;72529;51.786;4.662;2024-03-06T09:07:11;31.25;;;31.04;;
82787;SDS011;72529;51.786;4.662;2024-03-06T09:09:38;30.94;;;30.83;;
82787;SDS011;72529;51.786;4.662;2024-03-06T09:14:33;29.55;;;29.35;;
82787;SDS011;72529;51.786;4.662;2024-03-06T09:16:59;28.90;;;28.74;;
82787;SDS011;72529;51.786;4.662;2024-03-06T09:19:25;28.58;;;28.39;;
82787;SDS011;72529;51.786;4.662;2024-03-06T09:21:51;28.23;;;27.80;;
82787;SDS011;72529;51.786;4.662;2024-03-06T09:24:16;27.58;;;27.26;;
82787;SDS011;72529;51.786;4.662;2024-03-06T09:26:43;26.13;;;26.01;;
82787;SDS011;72529;51.786;4.662;2024-03-06T09:29:08;26.75;;;26.57;;
82787;SDS011;72529;51.786;4.662;2024-03-06T09:31:35;26.36;;;26.27;;
82787;SDS011;72529;51.786;4.662;2024-03-06T09:34:02;25.29;;;25.02;;
82787;SDS011;72529;51.786;4.662;2024-03-06T09:36:28;25.13;;;24.84;;
82787;SDS011;72529;51.786;4.662;2024-03-06T09:38:53;25.86;;;25.56;;
82787;SDS011;72529;51.786;4.662;2024-03-06T09:41:19;24.20;;;23.97;;
82787;SDS011;72529;51.786;4.662;2024-03-06T09:43:44;22.17;;;22.01;;
82787;SDS011;72529;51.786;4.662;2024-03-06T09:46:10;23.40;;;23.30;;
82787;SDS011;72529;51.786;4.662;2024-03-06T09:48:36;23.57;;;23.38;;
82787;SDS011;72529;51.786;4.662;2024-03-06T09:51:11;21.36;;;21.21;;
82787;SDS011;72529;51.786;4.662;2024-03-06T09:53:37;20.48;;;20.36;;
82787;SDS011;72529;51.786;4.662;2024-03-06T09:56:04;18.28;;;18.22;;
82787;SDS011;72529;51.786;4.662;2024-03-06T09:58:31;18.90;;;18.60;;
82787;SDS011;72529;51.786;4.662;2024-03-06T10:00:58;19.01;;;18.83;;
82787;SDS011;72529;51.786;4.662;2024-03-06T10:03:25;19.66;;;19.59;;
82787;SDS011;72529;51.786;4.662;2024-03-06T10:05:51;16.97;;;16.92;;
82787;SDS011;72529;51.786;4.662;2024-03-06T10:08:16;17.50;;;17.37;;
82787;SDS011;72529;51.786;4.662;2024-03-06T10:10:42;17.40;;;17.25;;
82787;SDS011;72529;51.786;4.662;2024-03-06T10:13:08;17.91;;;17.91;;
82787;SDS011;72529;51.786;4.662;2024-03-06T10:15:34;19.39;;;19.39;;
82787;SDS011;72529;51.786;4.662;2024-03-06T10:20:39;12.73;;;12.64;;
82787;SDS011;72529;51.786;4.662;2024-03-06T10:23:08;16.37;;;16.37;;
82787;SDS011;72529;51.786;4.662;2024-03-06T10:25:34;20.99;;;20.91;;
82787;SDS011;72529;51.786;4.662;2024-03-06T10:28:10;22.18;;;22.07;;
82787;SDS011;72529;51.786;4.662;2024-03-06T10:30:37;21.54;;;21.54;;
82787;SDS011;72529;51.786;4.662;2024-03-06T10:33:07;19.25;;;19.25;;
82787;SDS011;72529;51.786;4.662;2024-03-06T10:35:34;18.94;;;18.93;;
82787;SDS011;72529;51.786;4.662;2024-03-06T10:38:03;20.28;;;20.27;;
82787;SDS011;72529;51.786;4.662;2024-03-06T10:40:30;20.21;;;20.21;;
82787;SDS011;72529;51.786;4.662;2024-03-06T10:43:02;20.30;;;20.30;;
82787;SDS011;72529;51.786;4.662;2024-03-06T10:45:49;20.21;;;20.17;;
82787;SDS011;72529;51.786;4.662;2024-03-06T10:48:16;20.27;;;20.19;;
82787;SDS011;72529;51.786;4.662;2024-03-06T10:50:44;21.01;;;20.78;;
82787;SDS011;72529;51.786;4.662;2024-03-06T10:53:14;20.40;;;20.33;;
82787;SDS011;72529;51.786;4.662;2024-03-06T10:55:44;20.40;;;20.39;;
82787;SDS011;72529;51.786;4.662;2024-03-06T10:58:11;19.95;;;19.94;;
82787;SDS011;72529;51.786;4.662;2024-03-06T11:00:37;18.73;;;18.72;;
82787;SDS011;72529;51.786;4.662;2024-03-06T11:03:08;17.76;;;17.76;;
82787;SDS011;72529;51.786;4.662;2024-03-06T11:05:38;19.20;;;19.20;;
82787;SDS011;72529;51.786;4.662;2024-03-06T11:08:14;18.95;;;18.95;;
82787;SDS011;72529;51.786;4.662;2024-03-06T11:10:42;17.11;;;17.11;;
82787;SDS011;72529;51.786;4.662;2024-03-06T11:15:42;15.40;;;15.39;;
82787;SDS011;72529;51.786;4.662;2024-03-06T11:20:59;14.79;;;14.78;;
82787;SDS011;72529;51.786;4.662;2024-03-06T11:23:33;13.69;;;13.68;;
82787;SDS011;72529;51.786;4.662;2024-03-06T11:26:00;15.09;;;15.09;;
82787;SDS011;72529;51.786;4.662;2024-03-06T11:28:32;15.15;;;15.15;;
82787;SDS011;72529;51.786;4.662;2024-03-06T11:31:01;14.24;;;14.24;;
82787;SDS011;72529;51.786;4.662;2024-03-06T11:36:17;16.76;;;16.76;;
82787;SDS011;72529;51.786;4.662;2024-03-06T11:38:52;16.15;;;16.15;;
82787;SDS011;72529;51.786;4.662;2024-03-06T11:41:28;15.36;;;15.36;;
82787;SDS011;72529;51.786;4.662;2024-03-06T11:43:56;15.20;;;15.18;;
82787;SDS011;72529;51.786;4.662;2024-03-06T11:49:14;16.82;;;16.82;;
82787;SDS011;72529;51.786;4.662;2024-03-06T11:51:49;16.46;;;16.46;;
82787;SDS011;72529;51.786;4.662;2024-03-06T11:54:18;16.16;;;16.15;;
82787;SDS011;72529;51.786;4.662;2024-03-06T11:56:48;14.83;;;14.79;;
82787;SDS011;72529;51.786;4.662;2024-03-06T11:59:37;15.78;;;15.77;;
82787;SDS011;72529;51.786;4.662;2024-03-06T12:02:05;16.34;;;16.34;;
82787;SDS011;72529;51.786;4.662;2024-03-06T12:04:31;14.82;;;14.82;;
82787;SDS011;72529;51.786;4.662;2024-03-06T12:06:59;14.94;;;14.94;;
82787;SDS011;72529;51.786;4.662;2024-03-06T12:09:30;14.95;;;14.95;;
82787;SDS011;72529;51.786;4.662;2024-03-06T12:11:57;15.34;;;15.34;;
82787;SDS011;72529;51.786;4.662;2024-03-06T12:14:23;14.43;;;14.43;;
82787;SDS011;72529;51.786;4.662;2024-03-06T12:19:27;14.06;;;14.06;;
82787;SDS011;72529;51.786;4.662;2024-03-06T12:21:53;13.23;;;13.23;;
82787;SDS011;72529;51.786;4.662;2024-03-06T12:24:19;10.21;;;10.21;;
82787;SDS011;72529;51.786;4.662;2024-03-06T12:26:45;10.11;;;10.11;;
82787;SDS011;72529;51.786;4.662;2024-03-06T12:29:16;13.88;;;13.83;;
82787;SDS011;72529;51.786;4.662;2024-03-06T12:31:44;14.75;;;14.65;;
82787;SDS011;72529;51.786;4.662;2024-03-06T12:34:13;16.27;;;16.27;;
82787;SDS011;72529;51.786;4.662;2024-03-06T12:36:40;18.75;;;18.72;;
82787;SDS011;72529;51.786;4.662;2024-03-06T12:39:05;12.81;;;12.81;;
82787;SDS011;72529;51.786;4.662;2024-03-06T12:41:41;14.06;;;14.06;;
82787;SDS011;72529;51.786;4.662;2024-03-06T12:44:06;12.58;;;12.58;;
82787;SDS011;72529;51.786;4.662;2024-03-06T12:46:32;11.57;;;11.57;;
82787;SDS011;72529;51.786;4.662;2024-03-06T12:48:57;11.58;;;11.58;;
82787;SDS011;72529;51.786;4.662;2024-03-06T12:51:23;11.75;;;11.75;;
82787;SDS011;72529;51.786;4.662;2024-03-06T12:53:48;12.33;;;12.33;;
82787;SDS011;72529;51.786;4.662;2024-03-06T12:56:14;12.26;;;12.26;;
82787;SDS011;72529;51.786;4.662;2024-03-06T12:58:40;11.03;;;11.03;;
82787;SDS011;72529;51.786;4.662;2024-03-06T13:01:05;11.33;;;11.33;;
82787;SDS011;72529;51.786;4.662;2024-03-06T13:03:31;11.78;;;11.78;;
82787;SDS011;72529;51.786;4.662;2024-03-06T13:05:57;12.76;;;12.76;;
82787;SDS011;72529;51.786;4.662;2024-03-06T13:08:23;11.97;;;11.97;;
82787;SDS011;72529;51.786;4.662;2024-03-06T13:10:48;12.20;;;12.19;;
82787;SDS011;72529;51.786;4.662;2024-03-06T13:13:14;11.53;;;11.53;;
82787;SDS011;72529;51.786;4.662;2024-03-06T13:15:39;11.52;;;11.52;;
82787;SDS011;72529;51.786;4.662;2024-03-06T13:18:05;11.83;;;11.83;;
82787;SDS011;72529;51.786;4.662;2024-03-06T13:20:31;11.70;;;11.70;;
82787;SDS011;72529;51.786;4.662;2024-03-06T13:22:58;12.00;;;12.00;;
82787;SDS011;72529;51.786;4.662;2024-03-06T13:25:24;12.40;;;12.40;;
82787;SDS011;72529;51.786;4.662;2024-03-06T13:27:50;12.49;;;12.49;;
82787;SDS011;72529;51.786;4.662;2024-03-06T13:30:17;12.69;;;12.69;;
82787;SDS011;72529;51.786;4.662;2024-03-06T13:32:43;12.80;;;12.80;;
82787;SDS011;72529;51.786;4.662;2024-03-06T13:35:11;12.15;;;12.15;;
82787;SDS011;72529;51.786;4.662;2024-03-06T13:37:41;11.92;;;11.92;;
82787;SDS011;72529;51.786;4.662;2024-03-06T13:40:07;11.57;;;11.57;;
82787;SDS011;72529;51.786;4.662;2024-03-06T13:42:35;11.96;;;11.96;;
82787;SDS011;72529;51.786;4.662;2024-03-06T13:45:02;11.64;;;11.64;;
82787;SDS011;72529;51.786;4.662;2024-03-06T13:47:28;11.88;;;11.88;;
82787;SDS011;72529;51.786;4.662;2024-03-06T13:49:53;11.82;;;11.82;;
82787;SDS011;72529;51.786;4.662;2024-03-06T13:52:20;11.74;;;11.74;;
82787;SDS011;72529;51.786;4.662;2024-03-06T13:54:46;12.36;;;12.36;;
82787;SDS011;72529;51.786;4.662;2024-03-06T13:57:15;11.52;;;11.52;;
82787;SDS011;72529;51.786;4.662;2024-03-06T13:59:41;11.54;;;11.53;;
82787;SDS011;72529;51.786;4.662;2024-03-06T14:02:07;11.47;;;11.47;;
82787;SDS011;72529;51.786;4.662;2024-03-06T14:04:33;11.34;;;11.34;;
82787;SDS011;72529;51.786;4.662;2024-03-06T14:07:00;11.26;;;11.26;;
82787;SDS011;72529;51.786;4.662;2024-03-06T14:09:26;10.74;;;10.74;;
82787;SDS011;72529;51.786;4.662;2024-03-06T14:11:52;10.33;;;10.33;;
82787;SDS011;72529;51.786;4.662;2024-03-06T14:14:18;10.21;;;10.21;;
82787;SDS011;72529;51.786;4.662;2024-03-06T14:16:44;10.05;;;10.05;;
82787;SDS011;72529;51.786;4.662;2024-03-06T14:19:10;10.32;;;10.32;;
82787;SDS011;72529;51.786;4.662;2024-03-06T14:21:36;10.35;;;10.35;;
82787;SDS011;72529;51.786;4.662;2024-03-06T14:24:03;10.60;;;10.60;;
82787;SDS011;72529;51.786;4.662;2024-03-06T14:26:31;10.20;;;10.20;;
82787;SDS011;72529;51.786;4.662;2024-03-06T14:28:58;9.50;;;9.50;;
82787;SDS011;72529;51.786;4.662;2024-03-06T14:31:24;9.60;;;9.60;;
82787;SDS011;72529;51.786;4.662;2024-03-06T14:33:49;10.34;;;10.34;;
82787;SDS011;72529;51.786;4.662;2024-03-06T14:36:15;10.54;;;10.54;;
82787;SDS011;72529;51.786;4.662;2024-03-06T14:38:41;10.45;;;10.45;;